Time;durP1;ratioP1;P1;durP2;ratioP2;P2;SDS_P1;SDS_P2;PMS_P1;PMS_P2;Temp;Humidity;BMP_temperature;BMP_pressure;BME280_temperature;BME280_humidity;BME280_pressure;Samples;Min_cycle;Max_cycle;Signal;HPM_P1;HPM_P2
2021/10/22 00:02:06;;;;;;;15.00;3.10;;;9.20;99.90;;;;;;5053717;28;20021;-82
2021/10/22 00:04:32;;;;;;;11.27;3.17;;;9.20;99.90;;;;;;5052459;28;20430;-81
2021/10/22 00:06:58;;;;;;;18.87;3.27;;;9.20;99.90;;;;;;5052298;28;20658;-81
2021/10/22 00:09:24;;;;;;;13.97;3.47;;;9.20;99.90;;;;;;5053739;28;20028;-81
2021/10/22 00:11:50;;;;;;;16.53;3.00;;;9.20;99.90;;;;;;5052421;28;20432;-82
2021/10/22 00:14:16;;;;;;;13.93;2.90;;;9.20;99.90;;;;;;5052009;28;20024;-82
2021/10/22 00:16:42;;;;;;;12.23;3.43;;;9.20;99.90;;;;;;5051883;28;20108;-82
2021/10/22 00:19:09;;;;;;;13.23;2.70;;;9.30;99.90;;;;;;5051570;28;20021;-81
2021/10/22 00:21:34;;;;;;;10.30;2.23;;;9.20;99.90;;;;;;5052554;28;20028;-82
2021/10/22 00:24:01;;;;;;;12.03;2.47;;;9.20;99.90;;;;;;5051906;28;20167;-82
2021/10/22 00:26:27;;;;;;;10.73;2.40;;;9.30;99.90;;;;;;5053416;28;20029;-82
2021/10/22 00:28:53;;;;;;;10.43;2.27;;;9.30;99.90;;;;;;5053037;28;20028;-82
2021/10/22 00:31:18;;;;;;;10.13;2.20;;;9.30;99.90;;;;;;5051357;28;20036;-82
2021/10/22 00:33:45;;;;;;;12.33;2.70;;;9.30;99.90;;;;;;5053457;28;20025;-82
2021/10/22 00:36:13;;;;;;;17.50;3.30;;;9.30;99.90;;;;;;5053423;28;20028;-82
2021/10/22 00:38:39;;;;;;;9.60;2.50;;;9.40;99.90;;;;;;5053679;28;20049;-82
2021/10/22 00:41:05;;;;;;;10.30;2.13;;;9.40;99.90;;;;;;5051738;28;20394;-81
2021/10/22 00:43:33;;;;;;;17.93;2.50;;;9.30;99.90;;;;;;5053905;28;20480;-82
2021/10/22 00:45:59;;;;;;;10.43;2.00;;;9.30;99.90;;;;;;5052208;28;20021;-81
2021/10/22 00:48:25;;;;;;;11.97;2.53;;;9.30;99.90;;;;;;5052512;28;20032;-82
2021/10/22 00:50:57;;;;;;;10.93;2.23;;;9.30;99.90;;;;;;5051981;28;20124;-82
2021/10/22 00:53:25;;;;;;;13.23;2.27;;;9.40;99.90;;;;;;5052799;28;20017;-82
2021/10/22 00:55:51;;;;;;;15.00;2.60;;;9.40;99.90;;;;;;5053974;28;20477;-82
2021/10/22 00:58:18;;;;;;;11.53;2.40;;;9.40;99.90;;;;;;5054053;28;20473;-82
2021/10/22 01:00:43;;;;;;;10.93;2.27;;;9.30;99.90;;;;;;5051943;28;20273;-82
2021/10/22 01:03:09;;;;;;;12.27;2.30;;;9.40;99.90;;;;;;5053645;28;20025;-82
2021/10/22 01:05:35;;;;;;;10.13;2.33;;;9.40;99.90;;;;;;5053921;28;20385;-82
2021/10/22 01:08:03;;;;;;;14.77;2.47;;;9.50;99.90;;;;;;5053995;28;20025;-82
2021/10/22 01:10:29;;;;;;;11.60;2.30;;;9.50;99.90;;;;;;5053472;28;20390;-82
2021/10/22 01:12:57;;;;;;;10.97;2.30;;;9.50;99.90;;;;;;5052395;28;20021;-82
2021/10/22 01:15:23;;;;;;;9.33;1.90;;;9.40;99.90;;;;;;5053598;28;20033;-82
2021/10/22 01:17:49;;;;;;;13.23;2.37;;;9.40;99.90;;;;;;5052699;28;20028;-82
2021/10/22 01:20:22;;;;;;;8.37;1.73;;;9.40;99.90;;;;;;5051901;28;20040;-82
2021/10/22 01:22:50;;;;;;;10.47;1.80;;;9.40;99.90;;;;;;5055376;28;20552;-82
2021/10/22 01:25:19;;;;;;;13.37;2.67;;;9.40;99.90;;;;;;5056929;28;20025;-82
2021/10/22 01:27:46;;;;;;;9.52;2.25;;;9.40;99.90;;;;;;5056838;28;20437;-83
2021/10/22 01:30:14;;;;;;;9.10;2.40;;;9.30;99.90;;;;;;5057940;28;20040;-82
2021/10/22 01:32:40;;;;;;;13.70;2.40;;;9.30;99.90;;;;;;5058263;28;20078;-82
2021/10/22 01:35:08;;;;;;;13.60;2.87;;;9.30;99.90;;;;;;5056123;28;20025;-82
2021/10/22 01:37:36;;;;;;;10.43;2.63;;;9.20;99.90;;;;;;5057771;28;20335;-82
2021/10/22 01:40:02;;;;;;;12.33;2.80;;;9.20;99.90;;;;;;5055610;28;20032;-83
2021/10/22 01:42:28;;;;;;;13.57;3.17;;;9.10;99.90;;;;;;5057612;28;20112;-82
2021/10/22 01:44:54;;;;;;;8.57;2.13;;;9.10;99.90;;;;;;5057902;28;20083;-82
2021/10/22 01:47:21;;;;;;;15.57;2.80;;;9.10;99.90;;;;;;5057977;28;20021;-82
2021/10/22 01:49:47;;;;;;;13.80;2.50;;;9.10;99.90;;;;;;5056201;28;20017;-82
2021/10/22 01:52:13;;;;;;;10.30;1.83;;;9.10;99.90;;;;;;5056503;28;20036;-82
2021/10/22 01:54:39;;;;;;;15.00;2.87;;;9.10;99.90;;;;;;5056675;28;20029;-82
2021/10/22 01:57:05;;;;;;;13.63;2.40;;;9.10;99.90;;;;;;5057819;28;20079;-82
2021/10/22 01:59:31;;;;;;;12.83;2.97;;;9.00;99.90;;;;;;5057507;28;20020;-82
2021/10/22 02:01:57;;;;;;;11.60;3.50;;;9.00;99.90;;;;;;5058614;28;20504;-82
2021/10/22 02:04:23;;;;;;;14.03;3.60;;;9.00;99.90;;;;;;5058597;28;20032;-82
2021/10/22 02:06:49;;;;;;;18.33;4.07;;;9.00;99.90;;;;;;5058737;28;20025;-82
2021/10/22 02:09:16;;;;;;;17.30;4.07;;;9.00;99.90;;;;;;5057456;28;20024;-82
2021/10/22 02:11:42;;;;;;;17.03;3.87;;;9.00;99.90;;;;;;5057986;28;20021;-82
2021/10/22 02:14:07;;;;;;;13.83;3.57;;;9.00;99.90;;;;;;5058126;28;20094;-82
2021/10/22 02:16:33;;;;;;;15.33;3.90;;;9.00;99.90;;;;;;5056609;28;20048;-82
2021/10/22 02:18:59;;;;;;;16.27;4.60;;;9.00;99.90;;;;;;5057801;28;20086;-82
2021/10/22 02:21:25;;;;;;;14.33;4.30;;;9.00;99.90;;;;;;5057931;28;20025;-82
2021/10/22 02:23:50;;;;;;;14.97;3.67;;;9.00;99.90;;;;;;5056714;28;20029;-82
2021/10/22 02:26:16;;;;;;;20.83;3.87;;;8.90;99.90;;;;;;5060544;28;20450;-82
2021/10/22 02:28:42;;;;;;;15.37;3.53;;;8.90;99.90;;;;;;5058055;28;20116;-82
2021/10/22 02:31:08;;;;;;;18.77;3.57;;;8.90;99.90;;;;;;5060646;28;20029;-82
2021/10/22 02:33:33;;;;;;;17.57;3.70;;;8.90;99.90;;;;;;5060612;28;20045;-83
2021/10/22 02:35:59;;;;;;;15.40;3.57;;;8.80;99.90;;;;;;5062453;28;20055;-82
2021/10/22 02:38:25;;;;;;;15.73;3.60;;;8.80;99.90;;;;;;5062194;28;20048;-82
2021/10/22 02:40:50;;;;;;;13.83;3.40;;;8.90;99.90;;;;;;5054560;28;20116;-82
2021/10/22 02:43:16;;;;;;;16.50;3.80;;;8.90;99.90;;;;;;5054096;28;20037;-82
2021/10/22 02:45:42;;;;;;;15.13;3.60;;;8.80;99.90;;;;;;5055316;28;20028;-82
2021/10/22 02:48:08;;;;;;;17.40;3.83;;;8.90;99.90;;;;;;5055315;28;20025;-82
2021/10/22 02:50:33;;;;;;;12.67;3.40;;;8.80;99.90;;;;;;5055011;28;20485;-81
2021/10/22 02:53:03;;;;;;;11.93;3.20;;;8.80;99.90;;;;;;5054211;28;20370;-82
2021/10/22 02:55:29;;;;;;;14.37;3.30;;;8.80;99.90;;;;;;5055592;28;20422;-81
2021/10/22 02:57:55;;;;;;;12.63;2.90;;;8.80;99.90;;;;;;5053939;28;20036;-82
2021/10/22 03:00:21;;;;;;;15.87;3.17;;;8.80;99.90;;;;;;5055009;28;20413;-82
2021/10/22 03:02:47;;;;;;;13.40;3.10;;;8.80;99.90;;;;;;5055230;28;20044;-81
2021/10/22 03:05:14;;;;;;;11.37;3.07;;;8.80;99.90;;;;;;5054253;28;20025;-81
2021/10/22 03:07:40;;;;;;;15.27;3.20;;;8.90;99.90;;;;;;5054914;28;20021;-82
2021/10/22 03:10:07;;;;;;;9.97;2.33;;;8.80;99.90;;;;;;5052996;28;20025;-81
2021/10/22 03:12:35;;;;;;;17.50;3.57;;;8.80;99.90;;;;;;5055027;28;20540;-81
2021/10/22 03:15:01;;;;;;;14.43;3.97;;;8.80;99.90;;;;;;5055190;28;20032;-81
2021/10/22 03:17:27;;;;;;;13.53;3.40;;;8.80;99.90;;;;;;5053559;28;20025;-81
2021/10/22 03:19:53;;;;;;;14.07;3.27;;;8.80;99.90;;;;;;5052847;28;20082;-81
2021/10/22 03:22:18;;;;;;;17.23;4.00;;;8.80;99.90;;;;;;5054533;28;20449;-81
2021/10/22 03:24:44;;;;;;;12.80;2.90;;;8.80;99.90;;;;;;5054736;28;20494;-81
2021/10/22 03:27:15;;;;;;;12.33;3.10;;;8.80;99.90;;;;;;5053155;28;20417;-81
2021/10/22 03:29:41;;;;;;;9.93;3.37;;;8.80;99.90;;;;;;5054109;28;20025;-82
2021/10/22 03:32:06;;;;;;;10.37;2.57;;;8.80;99.90;;;;;;5054604;28;20036;-82
2021/10/22 03:34:32;;;;;;;16.77;2.70;;;8.80;99.90;;;;;;5054366;28;20025;-81
2021/10/22 03:36:58;;;;;;;12.70;2.73;;;8.80;99.90;;;;;;5054542;28;20025;-81
2021/10/22 03:39:23;;;;;;;10.30;3.17;;;8.80;99.90;;;;;;5054011;28;20108;-82
2021/10/22 03:41:49;;;;;;;16.67;3.47;;;8.70;99.90;;;;;;5054822;28;20104;-81
2021/10/22 03:44:15;;;;;;;14.37;2.87;;;8.70;99.90;;;;;;5054359;28;20496;-82
2021/10/22 03:46:40;;;;;;;26.03;4.03;;;8.70;99.90;;;;;;5053927;28;20079;-82
2021/10/22 03:49:06;;;;;;;14.43;3.23;;;8.70;99.90;;;;;;5053702;28;20025;-81
2021/10/22 03:51:32;;;;;;;13.30;2.83;;;8.60;99.90;;;;;;5053233;28;20017;-81
2021/10/22 03:53:58;;;;;;;12.17;2.50;;;8.60;99.90;;;;;;5053272;28;20057;-82
2021/10/22 03:56:24;;;;;;;11.37;3.03;;;8.60;99.90;;;;;;5054567;28;20044;-82
2021/10/22 03:58:50;;;;;;;10.40;2.70;;;8.60;99.90;;;;;;5054581;28;20031;-82
2021/10/22 04:01:16;;;;;;;13.60;2.93;;;8.60;99.90;;;;;;5054023;28;20381;-82
2021/10/22 04:03:41;;;;;;;16.13;2.63;;;8.60;99.90;;;;;;5053393;28;20037;-81
2021/10/22 04:06:07;;;;;;;17.57;3.50;;;8.50;99.90;;;;;;5054138;28;20543;-81
2021/10/22 04:08:33;;;;;;;12.33;2.60;;;8.50;99.90;;;;;;5054066;28;20024;-81
2021/10/22 04:10:58;;;;;;;16.67;3.43;;;8.50;99.90;;;;;;5052662;28;20057;-82
2021/10/22 04:13:24;;;;;;;12.07;2.57;;;8.60;99.90;;;;;;5053407;28;20048;-82
2021/10/22 04:15:52;;;;;;;13.07;2.30;;;8.50;99.90;;;;;;5054651;28;20367;-82
2021/10/22 04:18:18;;;;;;;15.47;3.17;;;8.50;99.90;;;;;;5053781;28;20114;-82
2021/10/22 04:20:44;;;;;;;11.80;3.07;;;8.50;99.90;;;;;;5054086;28;20044;-82
2021/10/22 04:23:10;;;;;;;13.40;2.90;;;8.50;99.90;;;;;;5055688;28;20035;-83
2021/10/22 04:25:36;;;;;;;15.37;3.43;;;8.60;99.90;;;;;;5054104;28;20028;-82
2021/10/22 04:28:04;;;;;;;11.63;3.00;;;8.60;99.90;;;;;;5052842;28;20052;-82
2021/10/22 04:30:30;;;;;;;14.90;2.60;;;8.50;99.90;;;;;;5053126;28;20033;-82
2021/10/22 04:32:56;;;;;;;15.67;3.73;;;8.50;99.90;;;;;;5053015;28;20021;-81
2021/10/22 04:35:21;;;;;;;17.23;3.33;;;8.50;99.90;;;;;;5053571;28;20561;-81
2021/10/22 04:43:00;;;;;;;13.90;2.60;;;8.40;99.90;;;;;;5053853;28;20438;-82
2021/10/22 04:45:26;;;;;;;10.80;2.67;;;8.50;99.90;;;;;;5053721;28;20028;-81
2021/10/22 04:47:52;;;;;;;11.10;2.20;;;8.50;99.90;;;;;;5053632;28;20025;-82
2021/10/22 04:50:17;;;;;;;14.67;2.67;;;8.50;99.90;;;;;;5051610;28;20052;-82
2021/10/22 04:52:44;;;;;;;13.47;2.70;;;8.50;99.90;;;;;;5053301;28;20108;-82
2021/10/22 04:55:11;;;;;;;10.87;2.37;;;8.40;99.90;;;;;;5053440;28;20025;-81
2021/10/22 04:57:37;;;;;;;12.37;2.87;;;8.50;99.90;;;;;;5052856;28;20077;-81
2021/10/22 05:00:06;;;;;;;9.17;2.10;;;8.50;99.90;;;;;;5052881;28;20044;-81
2021/10/22 05:02:33;;;;;;;14.00;2.55;;;8.50;99.90;;;;;;5053218;28;20060;-81
2021/10/22 05:04:59;;;;;;;15.33;2.30;;;8.50;99.90;;;;;;5053313;28;20501;-82
2021/10/22 05:07:25;;;;;;;15.97;2.40;;;8.50;99.90;;;;;;5052248;28;20239;-82
2021/10/22 05:09:50;;;;;;;9.00;1.63;;;8.50;99.90;;;;;;5052914;28;20057;-82
2021/10/22 05:12:16;;;;;;;9.93;2.30;;;8.50;99.90;;;;;;5053496;28;20469;-81
2021/10/22 05:14:42;;;;;;;13.73;2.30;;;8.50;99.90;;;;;;5053656;28;20052;-81
2021/10/22 05:17:07;;;;;;;8.30;2.40;;;8.50;99.90;;;;;;5053858;28;20025;-81
2021/10/22 05:19:33;;;;;;;10.80;2.50;;;8.50;99.90;;;;;;5051771;28;20041;-81
2021/10/22 05:21:59;;;;;;;12.67;2.27;;;8.50;99.90;;;;;;5053521;28;20025;-82
2021/10/22 05:24:24;;;;;;;10.03;2.50;;;8.50;99.90;;;;;;5053916;28;20033;-81
2021/10/22 05:26:50;;;;;;;10.97;2.40;;;8.50;99.90;;;;;;5054058;28;20017;-81
2021/10/22 05:29:17;;;;;;;11.03;2.87;;;8.50;99.90;;;;;;5051358;28;20536;-81
2021/10/22 05:31:42;;;;;;;13.63;2.73;;;8.50;99.90;;;;;;5053236;28;20489;-82
2021/10/22 05:34:08;;;;;;;13.37;2.50;;;8.50;99.90;;;;;;5053502;28;20055;-81
2021/10/22 05:36:34;;;;;;;13.03;2.53;;;8.50;99.90;;;;;;5053322;28;20355;-81
2021/10/22 05:39:00;;;;;;;10.50;2.03;;;8.50;99.90;;;;;;5051218;28;20032;-81
2021/10/22 05:41:25;;;;;;;11.73;2.40;;;8.50;99.90;;;;;;5051648;28;20033;-82
2021/10/22 05:43:51;;;;;;;13.00;3.10;;;8.50;99.90;;;;;;5053387;28;20461;-82
2021/10/22 05:46:20;;;;;;;8.70;2.23;;;8.50;99.90;;;;;;5053561;28;20053;-81
2021/10/22 05:48:47;;;;;;;12.10;3.20;;;8.40;99.90;;;;;;5053137;28;20504;-81
2021/10/22 05:51:14;;;;;;;12.90;2.20;;;8.40;99.90;;;;;;5051406;28;20533;-81
2021/10/22 05:53:40;;;;;;;7.83;2.43;;;8.40;99.90;;;;;;5053263;28;20021;-82
2021/10/22 05:56:07;;;;;;;14.13;2.90;;;8.40;99.90;;;;;;5052392;28;20495;-82
2021/10/22 05:58:34;;;;;;;12.07;2.57;;;8.40;99.90;;;;;;5051970;28;20043;-81
2021/10/22 06:01:00;;;;;;;10.17;2.50;;;8.50;99.90;;;;;;5052578;28;20549;-81
2021/10/22 06:03:25;;;;;;;10.97;2.13;;;8.40;99.90;;;;;;5053229;28;20065;-81
2021/10/22 06:05:53;;;;;;;14.33;2.30;;;8.40;99.90;;;;;;5053302;28;20041;-82
2021/10/22 06:08:19;;;;;;;14.10;2.93;;;8.40;99.90;;;;;;5053716;28;20033;-82
2021/10/22 06:10:45;;;;;;;13.40;2.40;;;8.40;99.90;;;;;;5056539;28;20390;-81
2021/10/22 06:13:11;;;;;;;14.07;2.70;;;8.40;99.90;;;;;;5055366;28;20025;-81
2021/10/22 06:15:37;;;;;;;10.17;2.10;;;8.40;99.90;;;;;;5055344;28;20025;-82
2021/10/22 06:18:03;;;;;;;14.37;2.43;;;8.30;99.90;;;;;;5057313;28;20029;-81
2021/10/22 06:20:48;;;;;;;15.73;2.63;;;8.40;99.90;;;;;;5077134;23;20033;-82
2021/10/22 06:25:58;;;;;;;13.63;2.83;;;8.30;99.90;;;;;;5057248;28;20036;-82
2021/10/22 06:28:24;;;;;;;11.40;2.60;;;8.30;99.90;;;;;;5056657;28;20021;-82
2021/10/22 06:30:49;;;;;;;12.70;2.40;;;8.30;99.90;;;;;;5055656;28;20025;-82
2021/10/22 06:33:15;;;;;;;13.20;2.53;;;8.30;99.90;;;;;;5055931;28;20489;-81
2021/10/22 06:35:43;;;;;;;14.70;2.90;;;8.30;99.90;;;;;;5059305;28;20058;-83
2021/10/22 06:38:09;;;;;;;14.10;2.95;;;8.40;99.90;;;;;;5060258;28;20519;-83
2021/10/22 06:40:35;;;;;;;19.47;3.30;;;8.40;99.90;;;;;;5059610;28;20317;-83
2021/10/22 06:43:00;;;;;;;13.93;2.83;;;8.40;99.90;;;;;;5060612;28;20025;-83
2021/10/22 06:45:26;;;;;;;12.70;2.63;;;8.40;99.90;;;;;;5061766;28;20025;-82
2021/10/22 06:47:52;;;;;;;11.23;2.33;;;8.40;99.90;;;;;;5060926;28;20029;-82
2021/10/22 06:50:17;;;;;;;9.67;2.43;;;8.50;99.90;;;;;;5058920;28;20202;-84
2021/10/22 06:52:43;;;;;;;11.70;2.50;;;8.50;99.90;;;;;;5061407;28;20104;-82
2021/10/22 06:55:10;;;;;;;9.37;2.40;;;8.50;99.90;;;;;;5062317;28;20422;-83
2021/10/22 06:57:40;;;;;;;9.07;2.53;;;8.50;99.90;;;;;;5060446;28;20056;-84
2021/10/22 07:00:08;;;;;;;6.73;2.43;;;8.50;99.90;;;;;;5060097;28;20056;-83
2021/10/22 07:02:48;;;;;;;17.45;4.15;;;8.50;99.90;;;;;;5060391;28;20035;-83
2021/10/22 07:05:26;;;;;;;;;;;8.60;99.90;;;;;;5060806;28;20092;-83
2021/10/22 07:07:52;;;;;;;16.63;3.87;;;8.60;99.90;;;;;;5062433;28;20404;-84
2021/10/22 07:10:19;;;;;;;13.53;3.87;;;8.60;99.90;;;;;;5059468;28;20466;-82
2021/10/22 07:12:45;;;;;;;12.73;3.63;;;8.60;99.90;;;;;;5060471;28;20104;-83
2021/10/22 07:15:11;;;;;;;16.30;3.33;;;8.70;99.90;;;;;;5060292;28;20024;-82
2021/10/22 07:17:37;;;;;;;11.20;2.70;;;8.60;99.90;;;;;;5062492;28;20021;-83
2021/10/22 07:20:03;;;;;;;11.57;2.80;;;8.70;99.90;;;;;;5060898;28;20443;-84
2021/10/22 07:22:33;;;;;;;10.10;2.47;;;8.70;99.90;;;;;;5063007;28;20029;-82
2021/10/22 07:24:59;;;;;;;10.50;2.40;;;8.70;99.90;;;;;;5062220;28;20116;-81
2021/10/22 07:27:24;;;;;;;9.37;2.50;;;8.70;99.90;;;;;;5061525;28;20021;-82
2021/10/22 07:29:50;;;;;;;12.47;2.13;;;8.70;99.90;;;;;;5060373;28;20359;-83
2021/10/22 07:32:16;;;;;;;16.40;3.83;;;8.80;99.90;;;;;;5061031;28;20037;-84
2021/10/22 07:34:42;;;;;;;15.67;4.77;;;8.80;99.90;;;;;;5061375;28;20049;-83
2021/10/22 07:37:07;;;;;;;11.53;3.93;;;8.80;99.90;;;;;;5063393;28;20025;-83
2021/10/22 07:39:34;;;;;;;10.47;2.73;;;8.90;99.90;;;;;;5061326;28;20025;-83
2021/10/22 07:42:00;;;;;;;9.13;2.60;;;8.90;99.90;;;;;;5062869;28;20056;-83
2021/10/22 07:44:26;;;;;;;10.93;2.40;;;9.00;99.90;;;;;;5062153;28;20029;-84
2021/10/22 07:46:53;;;;;;;12.30;2.30;;;9.00;99.90;;;;;;5063373;28;20021;-83
2021/10/22 07:49:19;;;;;;;13.43;3.03;;;9.10;99.90;;;;;;5061710;28;20017;-83
2021/10/22 07:51:45;;;;;;;13.53;2.23;;;9.10;99.90;;;;;;5061415;28;20089;-84
2021/10/22 07:54:10;;;;;;;12.10;2.27;;;9.10;99.90;;;;;;5063605;28;20494;-84
2021/10/22 07:56:36;;;;;;;12.17;2.53;;;9.00;99.90;;;;;;5064183;28;20077;-83
2021/10/22 07:59:04;;;;;;;13.67;3.00;;;9.00;99.90;;;;;;5062767;28;20032;-83
2021/10/22 08:01:30;;;;;;;9.63;2.30;;;9.00;99.90;;;;;;5062571;28;20032;-82
2021/10/22 08:03:55;;;;;;;8.57;2.40;;;9.10;99.90;;;;;;5062918;28;20405;-82
2021/10/22 08:06:21;;;;;;;9.53;2.17;;;9.20;99.90;;;;;;5063015;28;20028;-84
2021/10/22 08:08:47;;;;;;;10.20;3.07;;;9.30;99.90;;;;;;5068065;28;20098;-83
2021/10/22 08:11:14;;;;;;;13.23;2.20;;;9.30;99.90;;;;;;5063872;28;20024;-83
2021/10/22 08:13:40;;;;;;;12.20;2.43;;;9.30;99.90;;;;;;5063660;28;20017;-84
2021/10/22 08:16:06;;;;;;;10.90;2.60;;;9.40;99.90;;;;;;5063964;28;20124;-83
2021/10/22 08:18:32;;;;;;;12.13;2.37;;;9.40;99.90;;;;;;5064227;28;20074;-84
2021/10/22 08:21:03;;;;;;;9.27;2.30;;;9.30;99.90;;;;;;5064952;28;20044;-83
2021/10/22 08:23:29;;;;;;;10.70;2.60;;;9.40;99.90;;;;;;5063845;28;20021;-84
2021/10/22 08:25:54;;;;;;;12.80;2.27;;;9.40;99.90;;;;;;5065521;28;20024;-83
2021/10/22 08:28:20;;;;;;;9.87;2.47;;;9.40;99.90;;;;;;5056764;28;20028;-82
2021/10/22 08:30:54;;;;;;;14.93;2.60;;;9.40;99.90;;;;;;5055523;28;20021;-82
2021/10/22 08:33:22;;;;;;;13.53;2.67;;;9.40;99.90;;;;;;5055519;28;20021;-82
2021/10/22 08:35:47;;;;;;;14.40;2.90;;;9.50;99.90;;;;;;5057723;28;20024;-82
2021/10/22 08:38:13;;;;;;;10.40;2.37;;;9.40;99.90;;;;;;5053204;28;20033;-81
2021/10/22 08:40:38;;;;;;;11.67;2.73;;;9.50;99.90;;;;;;5052928;28;20079;-82
2021/10/22 08:43:04;;;;;;;16.03;3.00;;;9.50;99.90;;;;;;5054851;28;20024;-82
2021/10/22 08:45:33;;;;;;;12.07;2.70;;;9.50;99.90;;;;;;5053363;28;20025;-82
2021/10/22 08:47:59;;;;;;;12.53;2.40;;;9.60;99.90;;;;;;5054428;28;20047;-82
2021/10/22 08:50:25;;;;;;;15.77;2.90;;;9.50;99.90;;;;;;5052582;28;20104;-82
2021/10/22 08:52:52;;;;;;;11.67;2.37;;;9.60;99.90;;;;;;5052938;28;20052;-82
2021/10/22 08:55:18;;;;;;;16.73;2.67;;;9.60;99.90;;;;;;5053111;28;20029;-82
2021/10/22 08:57:46;;;;;;;7.57;2.20;;;9.70;99.90;;;;;;5053511;28;20121;-82
2021/10/22 09:00:24;;;;;;;9.77;2.43;;;9.70;99.90;;;;;;5054132;28;20025;-82
2021/10/22 09:02:51;;;;;;;11.37;2.33;;;9.70;99.90;;;;;;5052942;28;20024;-82
2021/10/22 09:05:20;;;;;;;8.97;2.60;;;9.70;99.90;;;;;;5052994;28;20025;-82
2021/10/22 09:07:52;;;;;;;;;;;9.70;99.90;;;;;;5053475;28;20029;-82
2021/10/22 09:10:20;;;;;;;11.50;2.20;;;9.80;99.90;;;;;;5053798;28;20021;-82
2021/10/22 09:12:51;;;;;;;11.80;2.30;;;9.70;99.90;;;;;;5052744;28;20049;-82
2021/10/22 09:15:23;;;;;;;11.13;2.47;;;9.80;99.90;;;;;;5053094;28;20123;-82
2021/10/22 09:17:49;;;;;;;13.73;2.67;;;9.80;99.90;;;;;;5052693;28;20275;-82
2021/10/22 09:20:16;;;;;;;12.40;2.83;;;9.90;99.90;;;;;;5053986;28;20033;-82
2021/10/22 09:22:49;;;;;;;16.90;3.03;;;9.90;99.90;;;;;;5053713;28;20032;-82
2021/10/22 09:25:20;;;;;;;13.63;3.13;;;10.00;99.90;;;;;;5052957;28;20437;-82
2021/10/22 09:27:58;;;;;;;14.37;2.40;;;10.00;99.90;;;;;;5052586;28;20025;-82
2021/10/22 09:30:23;;;;;;;11.27;2.57;;;10.00;99.90;;;;;;5052345;28;20366;-82
2021/10/22 09:32:55;;;;;;;12.07;2.47;;;10.10;99.90;;;;;;5054261;28;20024;-82
2021/10/22 09:35:36;;;;;;;7.73;1.90;;;10.10;99.90;;;;;;5052942;28;20025;-82
2021/10/22 09:38:07;;;;;;;10.97;2.40;;;10.20;99.90;;;;;;5052948;28;20072;-82
2021/10/22 09:40:33;;;;;;;10.03;1.90;;;10.20;99.90;;;;;;5051874;28;20025;-82
2021/10/22 09:43:30;;;;;;;10.00;2.00;;;10.20;99.90;;;;;;5053147;28;20028;-82
2021/10/22 09:46:17;;;;;;;13.43;1.93;;;10.20;99.90;;;;;;5057803;28;20094;-82
2021/10/22 09:48:46;;;;;;;7.47;1.90;;;10.30;99.90;;;;;;5058671;28;20021;-82
2021/10/22 09:51:33;;;;;;;10.30;2.17;;;10.30;99.90;;;;;;5056839;28;20440;-82
2021/10/22 09:54:12;;;;;;;13.00;2.03;;;10.40;99.90;;;;;;5057072;28;20087;-82
2021/10/22 09:56:41;;;;;;;11.07;2.00;;;10.30;99.90;;;;;;5056406;28;20029;-82
2021/10/22 09:59:09;;;;;;;8.47;1.70;;;10.40;99.90;;;;;;5056260;28;20037;-82
2021/10/22 10:01:36;;;;;;;12.90;2.20;;;10.40;99.90;;;;;;5057046;28;20029;-82
2021/10/22 10:04:06;;;;;;;8.87;1.80;;;10.40;99.90;;;;;;5056533;28;20505;-82
2021/10/22 10:06:33;;;;;;;9.67;1.90;;;10.40;99.90;;;;;;5057612;28;20053;-82
2021/10/22 10:09:00;;;;;;;7.43;1.67;;;10.50;99.90;;;;;;5055340;28;20021;-82
2021/10/22 10:11:27;;;;;;;11.53;2.00;;;10.50;99.90;;;;;;5055630;28;20444;-82
2021/10/22 10:13:57;;;;;;;6.13;1.50;;;10.60;99.90;;;;;;5056204;28;20032;-82
2021/10/22 10:16:28;;;;;;;11.50;1.80;;;10.70;99.90;;;;;;5058045;28;20112;-82
2021/10/22 10:19:05;;;;;;;8.07;1.60;;;10.70;99.90;;;;;;5057484;28;20122;-82
2021/10/22 10:21:38;;;;;;;13.03;1.87;;;10.70;99.90;;;;;;5055621;28;20029;-82
2021/10/22 10:24:05;;;;;;;10.77;1.77;;;10.80;99.90;;;;;;5055882;28;20079;-82
2021/10/22 10:26:33;;;;;;;12.33;1.57;;;10.90;99.90;;;;;;5057367;28;20029;-82
2021/10/22 10:29:02;;;;;;;12.75;1.95;;;11.00;99.90;;;;;;5055581;28;20435;-82
2021/10/22 10:31:38;;;;;;;10.25;1.60;;;11.00;99.90;;;;;;5055611;28;20025;-82
2021/10/22 10:34:34;;;;;;;10.00;1.93;;;11.10;99.90;;;;;;5056365;28;20079;-82
2021/10/22 10:37:02;;;;;;;7.63;1.80;;;11.00;99.90;;;;;;5048974;28;20064;-82
2021/10/22 10:39:44;;;;;;;8.97;2.13;;;11.00;99.90;;;;;;5057832;28;20107;-82
2021/10/22 10:42:17;;;;;;;15.57;2.40;;;11.00;99.90;;;;;;5055809;28;20028;-82
2021/10/22 10:44:44;;;;;;;12.60;2.10;;;11.10;99.90;;;;;;5055211;28;20112;-82
2021/10/22 10:47:33;;;;;;;8.90;1.50;;;11.10;99.90;;;;;;5056860;28;20028;-82
2021/10/22 10:49:59;;;;;;;9.45;1.95;;;11.20;99.90;;;;;;5056644;28;20501;-82
2021/10/22 10:52:37;;;;;;;11.00;1.77;;;11.20;99.90;;;;;;5055349;28;20021;-82
2021/10/22 10:55:32;;;;;;;9.80;1.87;;;11.30;99.90;;;;;;5054401;28;20103;-82
2021/10/22 10:58:07;;;;;;;9.67;2.73;;;11.30;99.90;;;;;;5057900;28;20122;-81
2021/10/22 11:00:43;;;;;;;4.87;1.47;;;11.30;99.90;;;;;;5062784;28;20507;-82
2021/10/22 11:03:45;;;;;;;11.03;2.37;;;11.40;99.90;;;;;;5061361;28;20033;-82
2021/10/22 11:06:34;;;;;;;13.63;2.43;;;11.40;99.90;;;;;;5061146;28;20025;-82
2021/10/22 11:09:01;;;;;;;11.40;1.90;;;11.50;99.90;;;;;;5058334;28;20045;-82
2021/10/22 11:11:33;;;;;;;10.10;2.00;;;11.50;99.90;;;;;;5057071;28;20111;-82
2021/10/22 11:14:01;;;;;;;11.40;1.93;;;11.50;99.90;;;;;;5057032;28;20036;-82
2021/10/22 11:19:05;;;;;;;11.17;2.20;;;11.60;99.90;;;;;;5057979;28;20041;-82
2021/10/22 11:21:52;;;;;;;9.03;1.50;;;11.60;99.90;;;;;;5057640;28;20056;-82
2021/10/22 11:24:22;;;;;;;11.80;2.17;;;11.60;99.90;;;;;;5057238;28;20029;-82
2021/10/22 11:27:02;;;;;;;10.13;2.00;;;11.60;99.90;;;;;;5057395;28;20025;-82
2021/10/22 11:29:33;;;;;;;9.60;1.87;;;11.50;99.90;;;;;;5056555;28;20021;-82
2021/10/22 11:32:10;;;;;;;9.20;1.60;;;11.50;99.90;;;;;;5056980;28;20021;-81
2021/10/22 11:34:42;;;;;;;8.30;1.90;;;11.50;99.90;;;;;;5057044;28;20060;-82
2021/10/22 11:37:15;;;;;;;8.97;1.90;;;11.50;99.90;;;;;;5056253;28;20056;-81
2021/10/22 11:39:40;;;;;;;7.70;1.90;;;11.50;99.90;;;;;;5054692;28;20028;-82
2021/10/22 11:42:10;;;;;;;8.73;1.70;;;11.50;99.90;;;;;;5054704;28;20017;-82
2021/10/22 11:44:49;;;;;;;8.57;1.80;;;11.50;99.90;;;;;;5055158;28;20025;-82
2021/10/22 11:47:19;;;;;;;10.17;1.73;;;11.60;99.90;;;;;;5054941;28;20024;-82
2021/10/22 11:49:45;;;;;;;9.23;1.70;;;11.50;99.90;;;;;;5054595;28;20522;-82
2021/10/22 11:52:17;;;;;;;9.37;1.63;;;11.50;99.90;;;;;;5054100;28;20115;-82
2021/10/22 11:54:45;;;;;;;8.00;1.57;;;11.40;99.90;;;;;;5054543;28;20494;-82
2021/10/22 11:57:17;;;;;;;11.68;1.92;;;11.40;99.90;;;;;;5055149;28;20496;-82
2021/10/22 11:59:50;;;;;;;10.57;2.20;;;11.40;99.90;;;;;;5055403;28;20497;-82
2021/10/22 12:02:19;;;;;;;9.97;2.00;;;11.40;99.90;;;;;;5056178;28;20037;-82
2021/10/22 12:04:45;;;;;;;10.37;2.17;;;11.40;99.90;;;;;;5054936;28;20386;-82
2021/10/22 12:07:11;;;;;;;9.20;1.70;;;11.30;99.90;;;;;;5054211;28;20282;-82
2021/10/22 12:09:42;;;;;;;9.43;1.80;;;11.30;99.90;;;;;;5054036;28;20086;-82
2021/10/22 12:12:07;;;;;;;7.10;1.80;;;11.30;99.90;;;;;;5055086;28;20021;-82
2021/10/22 12:14:42;;;;;;;8.63;1.83;;;11.30;99.90;;;;;;5054577;28;20036;-82
2021/10/22 12:17:16;;;;;;;6.93;2.10;;;11.40;99.90;;;;;;5055965;28;20017;-82
2021/10/22 12:19:47;;;;;;;11.13;2.03;;;11.40;99.90;;;;;;5056179;28;20021;-83
2021/10/22 12:22:14;;;;;;;8.63;1.60;;;11.40;99.90;;;;;;5063880;28;20051;-82
2021/10/22 12:24:45;;;;;;;7.27;1.50;;;11.40;99.90;;;;;;5066619;28;20021;-82
2021/10/22 12:27:11;;;;;;;12.33;2.30;;;11.50;99.90;;;;;;5066672;28;20017;-82
2021/10/22 12:30:05;;;;;;;6.30;1.43;;;11.50;99.90;;;;;;5063147;28;20032;-82
2021/10/22 12:32:43;;;;;;;9.10;1.87;;;11.60;99.90;;;;;;5061933;28;20039;-82
2021/10/22 12:35:18;;;;;;;8.87;1.83;;;11.60;99.90;;;;;;5064998;28;20508;-82
2021/10/22 12:38:05;;;;;;;11.70;2.20;;;11.70;99.90;;;;;;5065344;28;20025;-82
2021/10/22 12:40:38;;;;;;;6.83;1.60;;;11.70;99.90;;;;;;5065037;28;20089;-82
2021/10/22 12:43:23;;;;;;;6.20;1.90;;;11.60;99.90;;;;;;5063819;28;20552;-82
2021/10/22 12:46:21;;;;;;;11.07;2.20;;;11.70;99.90;;;;;;5064791;28;20032;-82
2021/10/22 12:48:51;;;;;;;11.03;1.77;;;11.70;99.90;;;;;;5044399;28;20033;-82
2021/10/22 12:51:23;;;;;;;8.03;1.80;;;11.70;99.90;;;;;;5069073;28;20262;-82
2021/10/22 12:53:50;;;;;;;8.93;1.80;;;11.70;99.90;;;;;;5069641;28;20029;-83
2021/10/22 12:56:27;;;;;;;9.37;2.07;;;11.80;99.90;;;;;;5068686;28;20090;-82
2021/10/22 12:59:06;;;;;;;13.70;2.13;;;11.80;99.90;;;;;;5069215;28;20025;-82
2021/10/22 13:01:40;;;;;;;6.43;1.70;;;11.80;99.90;;;;;;5069126;28;20049;-82
2021/10/22 13:04:08;;;;;;;11.33;2.27;;;11.80;99.90;;;;;;5070423;28;20486;-82
2021/10/22 13:09:39;;;;;;;9.07;2.10;;;11.90;99.90;;;;;;5069143;28;20052;-82